Time;durP1;ratioP1;P1;durP2;ratioP2;P2;SDS_P1;SDS_P2;PMS_P1;PMS_P2;Temp;Humidity;BMP_temperature;BMP_pressure;BME280_temperature;BME280_humidity;BME280_pressure;Samples;Min_cycle;Max_cycle;Signal;HPM_P1;HPM_P2
2021/11/27 00:00:40;;;;;;;25.83;19.77;;;5.10;99.90;;;;;;4997061;28;20299;-76
2021/11/27 00:03:06;;;;;;;23.83;19.00;;;5.10;99.90;;;;;;4994371;28;20084;-76
2021/11/27 00:05:34;;;;;;;21.65;18.00;;;5.10;99.90;;;;;;4997652;28;20041;-76
2021/11/27 00:08:02;;;;;;;22.80;18.42;;;5.10;99.90;;;;;;5029685;28;20041;-76
2021/11/27 00:10:33;;;;;;;24.05;17.63;;;5.10;99.90;;;;;;5014556;28;20117;-76
2021/11/27 00:13:00;;;;;;;21.15;17.77;;;5.10;99.90;;;;;;5031464;28;20060;-77
2021/11/27 00:15:27;;;;;;;24.85;18.65;;;5.10;99.90;;;;;;5013678;28;20128;-77
2021/11/27 00:17:54;;;;;;;20.55;17.48;;;5.10;99.90;;;;;;5030773;28;20418;-77
2021/11/27 00:20:24;;;;;;;20.80;18.15;;;5.30;99.90;;;;;;5013738;28;20402;-77
2021/11/27 00:22:50;;;;;;;20.83;17.65;;;5.90;99.90;;;;;;4994744;28;20083;-76
2021/11/27 00:25:16;;;;;;;22.25;17.58;;;5.10;99.90;;;;;;5001406;28;20094;-76
2021/11/27 00:27:43;;;;;;;20.27;17.23;;;5.10;99.90;;;;;;5034236;28;20047;-76
2021/11/27 00:30:14;;;;;;;20.05;17.60;;;5.50;99.90;;;;;;5017575;28;20040;-76
2021/11/27 00:32:40;;;;;;;21.60;17.90;;;5.10;99.90;;;;;;5015805;28;20156;-76
2021/11/27 00:35:07;;;;;;;23.48;17.60;;;5.10;99.90;;;;;;5016645;28;20045;-76
2021/11/27 00:37:39;;;;;;;22.42;18.08;;;5.10;99.90;;;;;;5033364;28;20041;-77
2021/11/27 00:40:10;;;;;;;23.75;18.38;;;5.10;99.90;;;;;;5034886;28;20049;-76
2021/11/27 00:42:36;;;;;;;24.30;18.08;;;5.10;99.90;;;;;;5015889;28;20037;-76
2021/11/27 00:45:10;;;;;;;26.50;19.10;;;5.20;99.90;;;;;;5034239;28;20050;-76
2021/11/27 00:47:38;;;;;;;26.23;20.02;;;5.00;99.90;;;;;;5000142;28;20041;-76
2021/11/27 00:50:08;;;;;;;26.42;18.70;;;5.10;99.90;;;;;;5016722;28;20042;-76
2021/11/27 00:52:36;;;;;;;25.65;19.00;;;5.10;99.90;;;;;;5032768;28;20046;-76
2021/11/27 00:55:04;;;;;;;26.63;20.27;;;5.30;99.90;;;;;;5034306;28;20116;-77
2021/11/27 00:57:30;;;;;;;25.92;19.92;;;5.10;99.90;;;;;;5033269;28;20044;-76
2021/11/27 00:59:56;;;;;;;27.15;19.70;;;5.10;99.90;;;;;;5033497;28;20718;-76
2021/11/27 01:02:22;;;;;;;27.00;20.35;;;5.30;99.90;;;;;;4983551;28;20046;-76
2021/11/27 01:04:48;;;;;;;29.52;21.17;;;5.20;99.90;;;;;;5030915;28;20035;-76
2021/11/27 01:07:17;;;;;;;26.92;21.77;;;5.20;99.90;;;;;;5034528;28;20047;-76
2021/11/27 01:09:43;;;;;;;27.70;22.63;;;5.20;99.90;;;;;;4999653;28;20038;-76
2021/11/27 01:12:12;;;;;;;29.60;23.02;;;5.10;99.90;;;;;;5032472;28;20041;-75
2021/11/27 01:14:38;;;;;;;28.05;21.50;;;5.20;99.90;;;;;;5032976;28;20038;-77
2021/11/27 01:17:07;;;;;;;30.02;21.83;;;5.90;99.90;;;;;;5001194;28;20397;-77
2021/11/27 01:19:35;;;;;;;28.35;22.85;;;5.10;99.90;;;;;;5032105;28;20056;-83
2021/11/27 01:22:10;;;;;;;33.22;23.63;;;5.80;99.90;;;;;;5016032;28;20041;-83
2021/11/27 01:24:36;;;;;;;32.03;23.60;;;5.20;99.90;;;;;;5032115;28;20044;-83
2021/11/27 01:27:05;;;;;;;32.13;22.80;;;5.20;99.90;;;;;;5033680;28;20120;-84
2021/11/27 01:29:31;;;;;;;34.67;24.35;;;5.50;99.90;;;;;;4999850;28;20049;-84
2021/11/27 01:31:57;;;;;;;33.13;23.05;;;5.20;99.90;;;;;;4998793;28;20050;-84
2021/11/27 01:34:24;;;;;;;30.17;23.35;;;6.10;99.90;;;;;;5034462;28;20037;-83
2021/11/27 01:36:55;;;;;;;31.00;23.33;;;5.50;99.90;;;;;;5015365;28;20385;-83
2021/11/27 01:39:21;;;;;;;32.67;24.52;;;5.80;99.90;;;;;;5016138;28;20034;-83
2021/11/27 01:41:47;;;;;;;31.67;24.50;;;5.80;99.90;;;;;;5015659;28;20041;-83
2021/11/27 01:44:13;;;;;;;32.65;24.40;;;5.30;99.90;;;;;;5032746;28;20065;-83
2021/11/27 01:46:40;;;;;;;33.22;25.13;;;5.80;99.90;;;;;;5012558;28;20064;-83
2021/11/27 01:49:10;;;;;;;33.30;24.60;;;5.30;99.90;;;;;;5033102;28;20137;-83
2021/11/27 01:51:37;;;;;;;32.35;24.10;;;5.30;99.90;;;;;;5000365;28;20033;-84
2021/11/27 01:54:11;;;;;;;31.33;23.58;;;6.00;99.90;;;;;;5000331;28;20037;-84
2021/11/27 01:56:48;;;;;;;33.53;21.98;;;5.70;99.90;;;;;;5033271;28;20099;-84
2021/11/27 01:59:16;;;;;;;28.17;21.55;;;5.30;99.90;;;;;;5016373;28;20069;-84
2021/11/27 02:01:43;;;;;;;26.85;20.63;;;5.30;99.90;;;;;;4999241;28;20147;-83
2021/11/27 02:04:10;;;;;;;23.65;18.45;;;5.30;99.90;;;;;;5014761;28;20520;-83
2021/11/27 02:06:38;;;;;;;24.90;20.85;;;5.30;99.90;;;;;;5033333;28;20037;-83
2021/11/27 02:09:08;;;;;;;22.73;18.45;;;6.10;99.90;;;;;;5033664;28;20044;-83
2021/11/27 02:11:36;;;;;;;21.25;18.08;;;5.20;99.90;;;;;;5015726;28;20049;-83
2021/11/27 02:14:03;;;;;;;23.77;18.73;;;5.20;99.90;;;;;;5032825;28;20042;-83
2021/11/27 02:16:29;;;;;;;22.08;17.30;;;5.70;99.90;;;;;;4999784;28;20045;-83
2021/11/27 02:18:55;;;;;;;22.48;17.80;;;5.10;99.90;;;;;;5026556;28;20041;-83
2021/11/27 02:21:23;;;;;;;20.88;17.23;;;5.10;99.90;;;;;;5032152;28;20041;-83
2021/11/27 02:23:51;;;;;;;25.38;18.23;;;5.10;99.90;;;;;;5031764;28;20041;-84
2021/11/27 02:26:22;;;;;;;23.35;18.00;;;5.30;99.90;;;;;;4999761;28;20144;-80
2021/11/27 02:28:59;;;;;;;22.67;17.63;;;5.10;99.90;;;;;;5031271;28;20068;-81
2021/11/27 02:31:25;;;;;;;21.73;17.83;;;5.10;99.90;;;;;;5015724;28;20048;-80
2021/11/27 02:33:52;;;;;;;22.35;18.05;;;5.10;99.90;;;;;;5016258;28;20104;-81
2021/11/27 02:36:18;;;;;;;22.33;17.13;;;5.10;99.90;;;;;;4993849;28;20067;-81
2021/11/27 02:38:44;;;;;;;22.85;18.40;;;5.00;99.90;;;;;;5032513;28;20050;-81
2021/11/27 02:41:13;;;;;;;22.70;18.08;;;5.70;99.90;;;;;;5033180;28;20045;-81
2021/11/27 02:43:42;;;;;;;28.90;18.90;;;5.00;99.90;;;;;;5031613;28;20444;-81
2021/11/27 02:46:08;;;;;;;25.15;18.20;;;5.20;99.90;;;;;;5016347;28;20508;-81
2021/11/27 02:48:34;;;;;;;21.75;17.98;;;5.00;99.90;;;;;;5032315;28;20191;-82
2021/11/27 02:51:00;;;;;;;22.63;18.05;;;4.60;99.90;;;;;;5030828;28;20045;-81
2021/11/27 02:53:29;;;;;;;24.63;19.00;;;5.00;99.90;;;;;;5031223;28;20387;-81
2021/11/27 02:55:54;;;;;;;22.35;17.38;;;5.00;99.90;;;;;;4999232;28;20122;-82
2021/11/27 02:58:23;;;;;;;24.70;18.60;;;5.50;99.90;;;;;;5032642;28;20096;-82
2021/11/27 03:00:50;;;;;;;24.83;17.13;;;5.00;99.90;;;;;;5015383;28;20102;-82
2021/11/27 03:03:16;;;;;;;22.95;16.63;;;5.00;99.90;;;;;;5032854;28;20418;-83
2021/11/27 03:05:42;;;;;;;24.95;17.30;;;5.40;99.90;;;;;;4999433;28;20049;-83
2021/11/27 03:08:07;;;;;;;23.42;17.38;;;5.00;99.90;;;;;;5014270;28;20050;-83
2021/11/27 03:10:36;;;;;;;25.40;18.45;;;5.50;99.90;;;;;;5015085;28;20048;-83
2021/11/27 03:13:05;;;;;;;24.15;17.88;;;5.80;99.90;;;;;;4999924;28;20037;-83
2021/11/27 03:15:31;;;;;;;23.27;16.83;;;5.90;99.90;;;;;;4999334;28;20095;-83
2021/11/27 03:17:57;;;;;;;22.75;18.13;;;5.00;99.90;;;;;;4999381;28;20072;-83
2021/11/27 03:20:29;;;;;;;23.27;16.67;;;5.20;99.90;;;;;;5031149;28;20081;-81
2021/11/27 03:22:55;;;;;;;25.63;18.20;;;5.00;99.90;;;;;;5031108;28;20044;-81
2021/11/27 03:25:20;;;;;;;23.88;17.73;;;5.10;99.90;;;;;;5014076;28;20037;-81
2021/11/27 03:27:46;;;;;;;23.55;17.15;;;5.10;99.90;;;;;;4982060;28;20038;-82
2021/11/27 03:30:16;;;;;;;22.27;16.55;;;5.30;99.90;;;;;;5030990;28;20460;-80
2021/11/27 03:32:42;;;;;;;22.42;17.65;;;5.10;99.90;;;;;;5030976;28;20041;-82
2021/11/27 03:35:14;;;;;;;24.42;17.67;;;5.10;99.90;;;;;;5015147;28;20044;-77
2021/11/27 03:37:41;;;;;;;20.10;15.90;;;5.10;99.90;;;;;;4998666;28;20037;-76
2021/11/27 03:40:12;;;;;;;21.95;16.75;;;5.10;99.90;;;;;;5032505;28;20043;-76
2021/11/27 03:42:47;;;;;;;21.80;16.33;;;5.10;99.90;;;;;;5030092;28;20478;-77
2021/11/27 03:45:16;;;;;;;24.25;16.67;;;6.30;99.90;;;;;;5025666;28;20080;-77
2021/11/27 03:48:06;;;;;;;23.35;17.63;;;5.20;99.90;;;;;;5031512;28;20544;-77
2021/11/27 03:50:39;;;;;;;21.00;16.50;;;5.20;99.90;;;;;;5014714;28;20040;-77
2021/11/27 03:53:06;;;;;;;20.58;15.93;;;5.20;99.90;;;;;;4998352;28;20045;-77
2021/11/27 03:55:32;;;;;;;25.73;17.05;;;5.20;99.90;;;;;;4996442;28;20482;-77
2021/11/27 03:58:00;;;;;;;22.00;17.23;;;5.20;99.90;;;;;;5016133;28;20044;-77
2021/11/27 04:00:26;;;;;;;24.60;16.52;;;5.20;99.90;;;;;;5018762;28;20409;-77
2021/11/27 04:02:53;;;;;;;22.55;17.30;;;5.30;99.90;;;;;;5018714;28;20120;-77
2021/11/27 04:05:20;;;;;;;21.52;16.45;;;5.30;99.90;;;;;;5035074;28;20045;-77
2021/11/27 04:07:47;;;;;;;22.40;16.75;;;5.30;99.90;;;;;;5002102;28;20068;-77
2021/11/27 04:10:15;;;;;;;22.65;16.33;;;5.20;99.90;;;;;;5002135;28;20049;-78
2021/11/27 04:12:43;;;;;;;23.88;16.75;;;5.80;99.90;;;;;;5033254;28;21984;-77
2021/11/27 04:15:09;;;;;;;21.17;15.68;;;5.60;99.90;;;;;;5018121;28;20037;-77
2021/11/27 04:17:38;;;;;;;22.27;15.80;;;5.30;99.90;;;;;;5018135;28;20044;-77
2021/11/27 04:20:04;;;;;;;25.42;16.00;;;5.30;99.90;;;;;;5002277;28;20048;-77
2021/11/27 04:22:33;;;;;;;24.60;16.40;;;5.30;99.90;;;;;;5034340;28;20045;-77
2021/11/27 04:24:59;;;;;;;25.98;16.58;;;5.50;99.90;;;;;;5001865;28;20048;-77
2021/11/27 04:27:25;;;;;;;25.20;15.77;;;5.30;99.90;;;;;;5035240;28;20041;-77
2021/11/27 04:29:50;;;;;;;23.23;15.90;;;5.30;99.90;;;;;;5000543;28;20041;-77
2021/11/27 04:32:16;;;;;;;26.15;17.05;;;5.40;99.90;;;;;;5017095;28;20124;-77
2021/11/27 04:34:42;;;;;;;24.02;16.90;;;5.30;99.90;;;;;;5035686;28;20037;-77
2021/11/27 04:37:10;;;;;;;26.20;16.50;;;5.30;99.90;;;;;;5001642;28;20061;-76
2021/11/27 04:39:38;;;;;;;24.10;16.02;;;5.40;99.90;;;;;;5001717;28;20483;-76
2021/11/27 04:42:05;;;;;;;26.10;17.00;;;5.40;99.90;;;;;;5034257;28;20107;-76
2021/11/27 04:44:31;;;;;;;26.02;17.23;;;5.40;99.90;;;;;;5017815;28;20069;-76
2021/11/27 04:46:56;;;;;;;24.05;16.90;;;5.40;99.90;;;;;;5033613;28;20080;-77
2021/11/27 04:49:22;;;;;;;28.50;16.45;;;5.40;99.90;;;;;;5017447;28;20095;-77
2021/11/27 04:51:48;;;;;;;28.85;17.45;;;5.40;99.90;;;;;;5034135;28;20124;-77
2021/11/27 04:54:14;;;;;;;26.38;16.23;;;5.40;99.90;;;;;;4982173;28;20038;-83
2021/11/27 04:56:40;;;;;;;26.58;16.35;;;5.50;99.90;;;;;;5016754;28;20124;-81
2021/11/27 04:59:05;;;;;;;27.15;17.23;;;5.40;99.90;;;;;;5035484;28;20137;-81
2021/11/27 05:01:31;;;;;;;22.75;16.25;;;5.40;99.90;;;;;;4997248;28;20038;-81
2021/11/27 05:03:57;;;;;;;27.25;17.20;;;5.40;99.90;;;;;;4989675;28;20037;-82
2021/11/27 05:06:23;;;;;;;25.38;16.80;;;5.40;99.90;;;;;;5034863;28;20041;-82
2021/11/27 05:08:50;;;;;;;26.38;17.23;;;5.40;99.90;;;;;;5017797;28;20414;-82
2021/11/27 05:11:16;;;;;;;25.05;17.33;;;5.40;99.90;;;;;;5017548;28;20042;-82
2021/11/27 05:13:53;;;;;;;24.27;18.00;;;5.50;99.90;;;;;;4984700;28;20044;-82
2021/11/27 05:16:19;;;;;;;22.90;16.35;;;5.50;99.90;;;;;;5017731;28;20048;-81
2021/11/27 05:18:45;;;;;;;22.65;16.77;;;5.40;99.90;;;;;;5017173;28;20034;-83
2021/11/27 05:21:12;;;;;;;29.40;16.98;;;5.90;99.90;;;;;;5016469;28;20049;-83
2021/11/27 05:23:42;;;;;;;22.58;16.10;;;5.40;99.90;;;;;;5000955;28;22019;-83
2021/11/27 05:26:07;;;;;;;24.73;16.05;;;5.40;99.90;;;;;;5004383;28;20048;-82
2021/11/27 05:28:33;;;;;;;30.70;17.55;;;5.40;99.90;;;;;;5000968;28;20037;-82
2021/11/27 05:30:59;;;;;;;28.00;17.15;;;5.40;99.90;;;;;;5033731;28;20122;-81
2021/11/27 05:33:46;;;;;;;22.60;16.55;;;5.40;99.90;;;;;;5034150;28;20401;-82
2021/11/27 05:36:14;;;;;;;27.58;17.35;;;5.40;99.90;;;;;;5033874;28;20029;-82
2021/11/27 05:38:40;;;;;;;27.58;17.20;;;5.50;99.90;;;;;;5016623;28;20048;-82
2021/11/27 05:41:06;;;;;;;23.08;15.85;;;5.40;99.90;;;;;;5000716;28;20041;-83
2021/11/27 05:43:33;;;;;;;24.80;16.98;;;5.40;99.90;;;;;;4984621;28;20128;-78
2021/11/27 05:45:59;;;;;;;25.25;16.65;;;5.40;99.90;;;;;;5034415;28;20073;-78
2021/11/27 05:48:25;;;;;;;27.23;17.02;;;5.40;99.90;;;;;;5032456;28;20065;-78
2021/11/27 05:50:51;;;;;;;30.40;17.23;;;5.40;99.90;;;;;;5034012;28;20126;-78
2021/11/27 05:53:18;;;;;;;27.00;18.00;;;5.70;99.90;;;;;;5002956;28;20394;-77
2021/11/27 05:55:49;;;;;;;28.08;18.33;;;5.40;99.90;;;;;;5000669;28;20045;-78
2021/11/27 05:58:17;;;;;;;30.27;17.95;;;5.40;99.90;;;;;;5034178;28;20041;-78
2021/11/27 06:00:46;;;;;;;28.13;18.00;;;5.50;99.90;;;;;;5034063;28;20425;-78
2021/11/27 06:03:12;;;;;;;31.65;18.92;;;5.40;99.90;;;;;;5000487;28;20045;-78
2021/11/27 06:05:38;;;;;;;27.40;17.83;;;5.40;99.90;;;;;;4999888;28;20382;-78
2021/11/27 06:08:07;;;;;;;27.58;17.77;;;5.40;99.90;;;;;;5015003;28;20108;-79
2021/11/27 06:10:34;;;;;;;29.70;19.25;;;5.40;99.90;;;;;;5032191;28;20041;-78
2021/11/27 06:13:00;;;;;;;29.85;20.20;;;5.40;99.90;;;;;;5032581;28;20069;-79
2021/11/27 06:15:26;;;;;;;33.28;20.40;;;5.40;99.90;;;;;;5032556;28;20106;-78
2021/11/27 06:18:01;;;;;;;31.92;20.27;;;5.40;99.90;;;;;;5032222;28;20037;-79
2021/11/27 06:20:27;;;;;;;33.83;22.53;;;5.40;99.90;;;;;;4984312;28;20064;-79
2021/11/27 06:22:53;;;;;;;31.10;21.65;;;5.40;99.90;;;;;;5032988;28;20284;-79
2021/11/27 06:25:19;;;;;;;36.80;21.98;;;5.40;99.90;;;;;;5032112;28;20371;-79
2021/11/27 06:27:45;;;;;;;34.10;23.15;;;5.40;99.90;;;;;;5031950;28;20108;-79
2021/11/27 06:30:11;;;;;;;34.60;23.33;;;5.40;99.90;;;;;;5032043;28;20033;-79
2021/11/27 06:32:37;;;;;;;40.15;23.65;;;5.40;99.90;;;;;;5033520;28;20041;-79
2021/11/27 06:35:03;;;;;;;33.75;23.55;;;5.40;99.90;;;;;;4998096;28;20041;-79
2021/11/27 06:37:29;;;;;;;36.42;23.90;;;5.40;99.90;;;;;;4982838;28;20045;-78
2021/11/27 06:39:59;;;;;;;40.53;24.05;;;5.40;99.90;;;;;;5032035;28;20037;-78
2021/11/27 06:42:25;;;;;;;34.75;23.63;;;5.40;99.90;;;;;;5033075;28;20043;-78
2021/11/27 06:44:51;;;;;;;37.63;24.35;;;5.90;99.90;;;;;;5032198;28;20037;-79
2021/11/27 06:47:20;;;;;;;33.47;23.90;;;5.40;99.90;;;;;;5031634;28;20054;-79
2021/11/27 06:49:50;;;;;;;34.00;23.42;;;5.40;99.90;;;;;;5032065;28;20466;-79
2021/11/27 06:52:16;;;;;;;37.42;24.45;;;5.40;99.90;;;;;;5031573;28;20062;-79
2021/11/27 06:54:44;;;;;;;34.10;24.92;;;6.10;99.90;;;;;;5015128;28;20033;-79
2021/11/27 06:57:11;;;;;;;37.30;24.60;;;5.60;99.90;;;;;;5031567;28;20547;-79
2021/11/27 06:59:38;;;;;;;36.80;25.27;;;5.40;99.90;;;;;;4994940;28;20124;-79
2021/11/27 07:02:04;;;;;;;43.88;26.73;;;5.40;99.90;;;;;;5032881;28;20128;-79
2021/11/27 07:04:30;;;;;;;33.58;24.45;;;5.40;99.90;;;;;;4998710;28;20500;-79
2021/11/27 07:06:59;;;;;;;34.05;25.00;;;5.40;99.90;;;;;;4985712;28;20068;-78
2021/11/27 07:09:25;;;;;;;35.75;24.63;;;5.40;99.90;;;;;;5012943;28;20111;-78
2021/11/27 07:11:52;;;;;;;35.58;24.90;;;5.40;99.90;;;;;;4998631;28;20045;-78
2021/11/27 07:14:18;;;;;;;30.52;22.85;;;6.30;99.90;;;;;;5031962;28;20080;-78
2021/11/27 07:16:44;;;;;;;26.52;20.73;;;5.80;99.90;;;;;;5031073;28;20065;-78
2021/11/27 07:19:09;;;;;;;26.80;20.40;;;5.40;99.90;;;;;;5014657;28;20041;-78
2021/11/27 07:21:35;;;;;;;28.83;20.42;;;5.80;99.90;;;;;;5014869;28;20048;-77
2021/11/27 07:24:05;;;;;;;26.85;20.65;;;5.40;99.90;;;;;;5032058;28;20076;-77
2021/11/27 07:26:31;;;;;;;29.80;19.67;;;5.40;99.90;;;;;;5031361;28;20049;-77
2021/11/27 07:29:00;;;;;;;25.15;19.90;;;5.40;99.90;;;;;;5030919;28;20053;-77
2021/11/27 07:31:26;;;;;;;29.17;19.90;;;5.30;99.90;;;;;;4997560;28;20064;-77
2021/11/27 07:33:53;;;;;;;26.98;19.80;;;5.30;99.90;;;;;;5014603;28;20040;-76
2021/11/27 07:36:22;;;;;;;27.92;20.25;;;5.30;99.90;;;;;;5017288;28;20041;-76
2021/11/27 07:38:47;;;;;;;27.25;20.00;;;5.30;99.90;;;;;;5031501;28;20029;-76
2021/11/27 07:41:13;;;;;;;25.65;19.48;;;5.30;99.90;;;;;;5014854;28;20122;-77
2021/11/27 07:43:39;;;;;;;27.38;20.42;;;5.30;99.90;;;;;;4995599;28;20045;-78
2021/11/27 07:46:04;;;;;;;27.90;20.58;;;5.30;99.90;;;;;;5012483;28;20033;-77
2021/11/27 07:48:34;;;;;;;25.67;20.10;;;5.60;99.90;;;;;;5031339;28;20045;-77
2021/11/27 07:51:01;;;;;;;24.83;19.80;;;5.40;99.90;;;;;;4980772;28;20056;-77
2021/11/27 07:53:30;;;;;;;23.17;19.20;;;5.30;99.90;;;;;;5031334;28;20397;-77
2021/11/27 07:55:57;;;;;;;25.60;18.63;;;5.30;99.90;;;;;;5015338;28;20113;-77
2021/11/27 07:58:26;;;;;;;25.38;19.63;;;5.30;99.90;;;;;;4965255;28;20053;-77
2021/11/27 08:00:52;;;;;;;27.42;19.92;;;5.30;99.90;;;;;;5021206;28;20037;-77
2021/11/27 08:03:17;;;;;;;26.70;19.63;;;5.30;99.90;;;;;;5012830;28;20041;-79
2021/11/27 08:05:43;;;;;;;26.50;18.98;;;5.40;99.90;;;;;;4996450;28;20420;-82
2021/11/27 08:08:09;;;;;;;22.75;17.30;;;5.30;99.90;;;;;;5030398;28;20045;-80
2021/11/27 08:10:35;;;;;;;22.85;17.75;;;5.30;99.90;;;;;;5013071;28;20489;-78
2021/11/27 08:13:00;;;;;;;24.08;17.85;;;5.40;99.90;;;;;;5030962;28;20057;-78
2021/11/27 08:15:26;;;;;;;24.38;18.35;;;5.30;99.90;;;;;;4996152;28;20501;-78
2021/11/27 08:17:52;;;;;;;23.85;16.70;;;6.30;99.90;;;;;;5012289;28;20045;-78
2021/11/27 08:20:18;;;;;;;25.95;17.52;;;5.30;99.90;;;;;;5028453;28;20043;-79
2021/11/27 08:22:43;;;;;;;24.45;17.77;;;5.60;99.90;;;;;;5011938;28;20033;-77
2021/11/27 08:25:10;;;;;;;28.00;17.80;;;5.40;99.90;;;;;;5028805;28;20073;-78
2021/11/27 08:27:36;;;;;;;24.27;17.35;;;6.00;99.90;;;;;;5028478;28;20041;-83
2021/11/27 08:30:05;;;;;;;23.15;16.95;;;5.40;99.90;;;;;;5028464;28;20107;-84
2021/11/27 08:32:32;;;;;;;23.08;16.63;;;5.40;99.90;;;;;;5030092;28;20107;-83
2021/11/27 08:35:06;;;;;;;24.33;17.00;;;5.40;99.90;;;;;;5030236;28;20038;-83
2021/11/27 08:37:32;;;;;;;23.27;17.10;;;5.40;99.90;;;;;;5008496;28;20042;-83
2021/11/27 08:39:59;;;;;;;25.98;16.83;;;5.90;99.90;;;;;;4993080;28;20126;-82
2021/11/27 08:42:25;;;;;;;25.95;17.35;;;5.40;99.90;;;;;;5011106;28;20136;-83
2021/11/27 08:44:52;;;;;;;26.38;17.10;;;6.10;99.90;;;;;;5012925;28;20088;-79
2021/11/27 08:47:19;;;;;;;21.52;15.80;;;6.30;99.90;;;;;;4996706;28;20061;-78
2021/11/27 08:49:46;;;;;;;24.08;17.35;;;5.40;99.90;;;;;;5013153;28;20038;-79
2021/11/27 08:52:12;;;;;;;24.83;17.20;;;5.50;99.90;;;;;;5013137;28;20057;-78
2021/11/27 08:54:38;;;;;;;21.42;16.52;;;6.20;99.90;;;;;;5011971;28;20134;-77
2021/11/27 08:57:04;;;;;;;24.85;17.50;;;5.50;99.90;;;;;;5011334;28;20487;-76
2021/11/27 08:59:31;;;;;;;24.90;16.88;;;5.40;99.90;;;;;;4994748;28;20552;-76
2021/11/27 09:01:57;;;;;;;24.05;17.75;;;5.50;99.90;;;;;;4996243;28;20075;-80
2021/11/27 09:04:31;;;;;;;21.23;17.13;;;5.50;99.90;;;;;;4994687;28;20042;-77
2021/11/27 09:06:57;;;;;;;23.38;17.40;;;5.60;99.90;;;;;;5011465;28;20034;-74
2021/11/27 09:09:24;;;;;;;21.10;15.93;;;5.50;99.90;;;;;;4993408;28;20119;-76
2021/11/27 09:11:50;;;;;;;20.02;15.80;;;5.50;99.90;;;;;;4992388;28;20038;-81
2021/11/27 09:14:17;;;;;;;21.30;16.65;;;5.60;99.90;;;;;;4996385;28;20053;-79
2021/11/27 09:16:44;;;;;;;21.92;16.42;;;5.50;99.90;;;;;;5017151;28;20041;-78
2021/11/27 09:19:10;;;;;;;22.55;16.60;;;5.50;99.90;;;;;;4996880;28;20049;-78
2021/11/27 09:21:35;;;;;;;22.40;17.15;;;5.50;99.90;;;;;;5031649;28;20037;-78
2021/11/27 09:24:03;;;;;;;22.38;17.55;;;5.50;99.90;;;;;;5033325;28;20095;-78
2021/11/27 09:26:37;;;;;;;24.45;17.42;;;5.50;99.90;;;;;;4999165;28;20053;-78
2021/11/27 09:29:04;;;;;;;22.45;16.70;;;5.50;99.90;;;;;;5015508;28;20042;-78
2021/11/27 09:31:39;;;;;;;24.23;16.65;;;5.60;99.90;;;;;;5016913;28;20124;-78
2021/11/27 09:34:08;;;;;;;23.88;17.95;;;5.60;99.90;;;;;;4998947;28;20045;-78
2021/11/27 09:36:35;;;;;;;24.80;16.52;;;5.60;99.90;;;;;;5016980;28;20117;-78
2021/11/27 09:39:05;;;;;;;21.33;16.48;;;5.60;99.90;;;;;;5016698;28;20046;-78
2021/11/27 09:41:34;;;;;;;26.27;16.88;;;5.60;99.90;;;;;;5016688;28;20124;-78
2021/11/27 09:44:05;;;;;;;24.85;17.25;;;5.60;99.90;;;;;;5034002;28;20132;-78
2021/11/27 09:46:36;;;;;;;22.30;16.90;;;5.60;99.90;;;;;;5014224;28;20041;-78
2021/11/27 09:49:14;;;;;;;26.83;16.77;;;5.70;99.90;;;;;;5017239;28;20061;-78
2021/11/27 09:51:40;;;;;;;21.67;15.55;;;5.70;99.90;;;;;;5032304;28;20524;-78
2021/11/27 09:54:08;;;;;;;23.73;15.80;;;5.70;99.90;;;;;;4999239;28;20046;-78
2021/11/27 09:56:34;;;;;;;22.38;15.75;;;5.70;99.90;;;;;;5016791;28;20164;-78
2021/11/27 09:59:00;;;;;;;23.10;15.68;;;5.70;99.90;;;;;;5032879;28;20449;-78
2021/11/27 10:01:34;;;;;;;20.98;15.23;;;5.70;99.90;;;;;;5015710;28;20493;-78
2021/11/27 10:04:05;;;;;;;20.98;14.38;;;5.70;99.90;;;;;;5024080;28;20056;-78
2021/11/27 10:06:43;;;;;;;18.85;13.23;;;5.80;99.90;;;;;;5000289;28;20045;-78
2021/11/27 10:09:17;;;;;;;19.73;14.70;;;5.80;99.90;;;;;;5032282;28;20420;-78
2021/11/27 10:11:45;;;;;;;20.77;14.25;;;5.80;99.90;;;;;;5032159;28;20048;-78
2021/11/27 10:14:12;;;;;;;20.45;14.20;;;5.90;99.90;;;;;;5015783;28;20052;-78
2021/11/27 10:16:56;;;;;;;18.45;13.25;;;5.80;99.90;;;;;;4999760;28;20482;-78
2021/11/27 10:19:22;;;;;;;20.70;13.27;;;5.80;99.90;;;;;;5026089;28;20148;-78
2021/11/27 10:21:56;;;;;;;18.88;13.15;;;5.80;99.90;;;;;;5032665;28;20393;-78
2021/11/27 10:24:27;;;;;;;19.60;12.30;;;5.80;99.90;;;;;;5033857;28;20037;-78
2021/11/27 10:26:53;;;;;;;24.25;13.50;;;5.90;99.90;;;;;;5014618;28;20041;-78
2021/11/27 10:29:25;;;;;;;19.75;13.68;;;5.90;99.90;;;;;;4999475;28;20489;-78
2021/11/27 10:32:03;;;;;;;22.33;14.40;;;5.90;99.90;;;;;;4997732;28;20095;-75
2021/11/27 10:34:29;;;;;;;19.67;13.40;;;5.90;99.90;;;;;;5031771;28;20393;-75
2021/11/27 10:36:55;;;;;;;19.90;14.48;;;5.90;99.90;;;;;;5015659;28;20045;-72
2021/11/27 10:39:20;;;;;;;17.98;13.52;;;5.90;99.90;;;;;;5032143;28;20080;-72
2021/11/27 10:41:57;;;;;;;18.00;13.63;;;6.00;99.90;;;;;;5032108;28;20080;-72
2021/11/27 10:44:35;;;;;;;18.75;13.80;;;6.00;99.90;;;;;;5014336;28;20073;-71
2021/11/27 10:47:11;;;;;;;21.70;13.73;;;6.00;99.90;;;;;;5031838;28;20038;-72
2021/11/27 10:49:38;;;;;;;16.85;13.10;;;6.00;99.90;;;;;;5015463;28;20045;-72
2021/11/27 10:52:12;;;;;;;19.70;12.77;;;6.00;99.90;;;;;;4999004;28;20049;-72
2021/11/27 10:54:46;;;;;;;20.35;12.70;;;6.00;99.90;;;;;;5031829;28;20041;-72
2021/11/27 10:57:27;;;;;;;18.90;12.98;;;6.00;99.90;;;;;;5032046;28;20041;-72
2021/11/27 10:59:55;;;;;;;18.77;12.88;;;6.00;99.90;;;;;;5030756;28;20397;-72
2021/11/27 11:02:22;;;;;;;17.17;11.73;;;6.10;99.90;;;;;;5015199;28;20049;-72
2021/11/27 11:05:15;;;;;;;19.90;13.10;;;6.00;99.90;;;;;;5015483;28;20466;-72
2021/11/27 11:07:42;;;;;;;17.38;12.48;;;6.00;99.90;;;;;;5028230;28;20050;-72
2021/11/27 11:10:25;;;;;;;16.20;12.43;;;6.00;99.90;;;;;;5021024;28;20076;-72
2021/11/27 11:12:58;;;;;;;15.52;12.13;;;6.00;99.90;;;;;;4998994;28;20122;-72
2021/11/27 11:15:28;;;;;;;15.75;12.23;;;6.00;99.90;;;;;;5031051;28;20489;-72
2021/11/27 11:18:13;;;;;;;16.98;12.02;;;6.00;99.90;;;;;;5031501;28;20532;-72
2021/11/27 11:20:44;;;;;;;18.65;13.38;;;6.10;99.90;;;;;;5032770;28;20045;-75
2021/11/27 11:23:21;;;;;;;14.20;9.13;;;6.30;99.90;;;;;;5031074;28;20041;-76
2021/11/27 11:26:04;;;;;;;11.50;8.35;;;6.20;99.90;;;;;;4994722;28;20036;-76
2021/11/27 11:28:53;;;;;;;14.35;7.55;;;6.10;99.90;;;;;;5028227;28;20033;-75
2021/11/27 11:31:33;;;;;;;14.10;6.38;;;6.10;99.90;;;;;;5012485;28;20045;-75
2021/11/27 11:34:01;;;;;;;9.63;5.28;;;6.10;99.90;;;;;;5012076;28;20508;-76
2021/11/27 11:36:27;;;;;;;10.52;5.38;;;6.20;99.90;;;;;;5027841;28;20469;-75
2021/11/27 11:38:55;;;;;;;10.68;4.93;;;6.20;99.90;;;;;;5031055;28;20465;-76
2021/11/27 11:41:24;;;;;;;8.98;4.93;;;6.40;99.90;;;;;;5011821;28;20045;-73
2021/11/27 11:43:52;;;;;;;9.70;4.45;;;6.20;99.90;;;;;;5021582;28;20474;-74
2021/11/27 11:46:18;;;;;;;6.25;3.58;;;6.20;99.90;;;;;;5029438;28;20045;-73
2021/11/27 11:48:56;;;;;;;5.07;3.50;;;6.20;99.90;;;;;;5027512;28;20068;-74
2021/11/27 11:51:45;;;;;;;7.05;3.78;;;6.30;99.90;;;;;;5029472;28;20107;-80
2021/11/27 11:54:12;;;;;;;5.63;3.67;;;6.30;99.90;;;;;;4990910;28;20157;-78
2021/11/27 11:56:40;;;;;;;7.40;3.80;;;6.30;99.90;;;;;;5027368;28;20041;-78
2021/11/27 11:59:27;;;;;;;5.18;3.53;;;6.30;99.90;;;;;;4995673;28;20142;-78
2021/11/27 12:02:26;;;;;;;8.80;4.00;;;6.40;99.90;;;;;;4989560;28;20094;-79
2021/11/27 12:04:58;;;;;;;4.63;3.35;;;6.40;99.90;;;;;;5014845;28;20478;-80
2021/11/27 12:07:46;;;;;;;5.63;3.63;;;6.40;99.90;;;;;;4996625;28;20095;-79
2021/11/27 12:10:24;;;;;;;3.78;3.00;;;6.40;99.90;;;;;;5021099;28;20393;-80
2021/11/27 12:13:05;;;;;;;7.15;3.45;;;6.30;99.90;;;;;;5024675;28;20034;-81
2021/11/27 12:15:54;;;;;;;5.18;4.05;;;6.30;99.90;;;;;;5011385;28;20476;-80
2021/11/27 12:18:23;;;;;;;10.48;4.95;;;6.30;99.90;;;;;;5012703;28;20048;-82
2021/11/27 12:21:00;;;;;;;6.40;4.50;;;6.30;99.90;;;;;;5029561;28;20087;-82
2021/11/27 12:23:26;;;;;;;7.63;5.20;;;6.30;99.90;;;;;;5029510;28;20038;-83
2021/11/27 12:26:14;;;;;;;6.72;4.68;;;6.50;99.90;;;;;;5028834;28;20037;-78
2021/11/27 12:28:48;;;;;;;10.17;4.80;;;6.30;99.90;;;;;;5017433;28;20429;-78
2021/11/27 12:31:38;;;;;;;9.30;5.47;;;6.20;99.90;;;;;;5010420;28;20322;-76
2021/11/27 12:34:05;;;;;;;8.38;5.68;;;6.20;99.90;;;;;;5016294;28;20116;-77
2021/11/27 12:36:32;;;;;;;8.30;5.30;;;6.20;99.90;;;;;;5017610;28;20030;-79
2021/11/27 12:39:01;;;;;;;11.18;6.22;;;6.20;99.90;;;;;;5016728;28;20139;-75
2021/11/27 12:41:42;;;;;;;9.45;6.05;;;6.20;99.90;;;;;;5025674;28;20049;-79
2021/11/27 12:44:35;;;;;;;12.48;7.00;;;6.20;99.90;;;;;;5015040;28;20048;-80
2021/11/27 12:47:26;;;;;;;9.57;6.18;;;6.20;99.90;;;;;;5033791;28;20041;-81